createdAt,value
2022-09-14T00:01:57.431Z,3.50
2022-09-14T00:04:59.222Z,3.90
2022-09-14T00:08:01.191Z,3.77
2022-09-14T00:11:06.588Z,3.40
2022-09-14T00:14:08.260Z,3.70
2022-09-14T00:17:09.906Z,3.70
2022-09-14T00:20:11.848Z,3.63
2022-09-14T00:23:13.415Z,3.63
2022-09-14T00:26:16.030Z,3.67
2022-09-14T00:29:18.126Z,3.50
2022-09-14T00:32:19.724Z,3.77
2022-09-14T00:35:21.334Z,3.80
2022-09-14T00:38:26.210Z,3.63
2022-09-14T00:41:29.901Z,4.03
2022-09-14T00:44:31.581Z,3.90
2022-09-14T00:47:33.243Z,4.40
2022-09-14T00:50:34.926Z,4.00
2022-09-14T00:53:36.747Z,3.90
2022-09-14T00:56:38.348Z,3.97
2022-09-14T00:59:41.776Z,4.00
2022-09-14T01:02:43.644Z,4.17
2022-09-14T01:05:45.221Z,4.37
2022-09-14T01:08:49.586Z,4.10
2022-09-14T01:12:14.341Z,3.80
2022-09-14T01:15:20.409Z,3.90
2022-09-14T01:18:25.226Z,4.40
2022-09-14T01:21:29.133Z,4.20
2022-09-14T01:24:39.690Z,4.33
2022-09-14T01:27:43.999Z,4.30
2022-09-14T01:30:46.106Z,5.13
2022-09-14T01:33:53.649Z,4.47
2022-09-14T01:36:58.969Z,4.30
2022-09-14T01:40:03.824Z,4.33
2022-09-14T01:43:11.895Z,4.80
2022-09-14T01:46:16.297Z,4.70
2022-09-14T01:49:32.187Z,4.80
2022-09-14T01:52:38.056Z,4.70
2022-09-14T01:55:44.932Z,4.73
2022-09-14T01:58:56.533Z,4.67
2022-09-14T02:02:01.956Z,4.63
2022-09-14T02:05:07.534Z,4.77
2022-09-14T02:08:09.255Z,4.63
2022-09-14T02:11:11.056Z,5.00
2022-09-14T02:14:12.764Z,4.60
2022-09-14T02:17:14.437Z,4.70
2022-09-14T02:20:20.427Z,4.67
2022-09-14T02:23:22.291Z,4.47
2022-09-14T02:26:24.329Z,5.13
2022-09-14T02:29:25.941Z,4.70
2022-09-14T02:32:33.800Z,4.80
2022-09-14T02:35:40.853Z,5.00
2022-09-14T02:39:02.380Z,4.83
2022-09-14T02:42:13.287Z,4.97
2022-09-14T02:45:29.039Z,4.67
2022-09-14T02:48:36.750Z,4.77
2022-09-14T02:51:58.585Z,4.73
2022-09-14T02:55:00.150Z,5.13
2022-09-14T02:58:02.881Z,5.13
2022-09-14T03:01:05.257Z,5.37
2022-09-14T03:04:06.960Z,5.33
2022-09-14T03:07:08.890Z,5.07
2022-09-14T03:10:10.442Z,4.83
2022-09-14T03:13:12.483Z,5.07
2022-09-14T03:16:15.354Z,5.30
2022-09-14T03:19:17.689Z,4.80
2022-09-14T03:22:19.357Z,4.97
2022-09-14T03:25:23.117Z,4.80
2022-09-14T03:28:24.819Z,5.50
2022-09-14T03:31:26.894Z,5.20
2022-09-14T03:34:28.581Z,4.77
2022-09-14T03:37:30.142Z,5.07
2022-09-14T03:40:31.855Z,5.27
2022-09-14T03:43:33.896Z,5.43
2022-09-14T03:46:35.573Z,5.33
2022-09-14T03:49:37.215Z,5.00
2022-09-14T03:52:39.047Z,4.90
2022-09-14T03:55:41.718Z,5.17
2022-09-14T03:58:43.746Z,5.77
2022-09-14T04:01:45.637Z,5.57
2022-09-14T04:04:48.354Z,4.90
2022-09-14T04:07:50.103Z,5.30
2022-09-14T04:10:51.786Z,5.40
2022-09-14T04:13:53.494Z,5.87
2022-09-14T04:16:55.159Z,6.37
2022-09-14T04:19:56.733Z,5.50
2022-09-14T04:22:58.624Z,5.63
2022-09-14T04:26:12.377Z,5.60
2022-09-14T04:29:14.653Z,5.23
2022-09-14T04:32:16.566Z,5.30
2022-09-14T04:35:18.116Z,4.90
2022-09-14T04:38:19.724Z,5.20
2022-09-14T04:41:22.029Z,4.93
2022-09-14T04:44:23.702Z,5.10
2022-09-14T04:47:25.330Z,4.87
2022-09-14T04:50:26.917Z,5.40
2022-09-14T04:53:38.520Z,5.73
2022-09-14T04:56:40.365Z,4.67
2022-09-14T04:59:41.947Z,4.93
2022-09-14T05:02:43.637Z,4.97
2022-09-14T05:05:45.337Z,4.90
2022-09-14T05:08:47.333Z,4.53
2022-09-14T05:11:51.797Z,4.67
2022-09-14T05:14:53.527Z,4.17
2022-09-14T05:17:55.123Z,4.37
2022-09-14T05:20:56.727Z,4.20
2022-09-14T05:23:59.545Z,4.53
2022-09-14T05:27:02.310Z,4.10
2022-09-14T05:30:04.241Z,5.10
2022-09-14T05:33:05.822Z,4.40
2022-09-14T05:36:08.253Z,4.90
2022-09-14T05:39:10.231Z,4.03
2022-09-14T05:42:11.916Z,3.60
2022-09-14T05:45:13.549Z,3.77
2022-09-14T05:48:15.348Z,3.30
2022-09-14T05:51:21.320Z,3.57
2022-09-14T05:54:22.880Z,3.60
2022-09-14T05:57:24.483Z,3.70
2022-09-14T06:00:27.759Z,3.40
2022-09-14T06:03:29.425Z,3.80
2022-09-14T06:06:31.867Z,3.10
2022-09-14T06:09:33.592Z,3.23
2022-09-14T06:12:35.245Z,3.17
2022-09-14T06:15:36.959Z,3.17
2022-09-14T06:18:39.549Z,3.00
2022-09-14T06:21:41.904Z,3.70
2022-09-14T06:24:43.468Z,3.17
2022-09-14T06:27:45.043Z,3.07
2022-09-14T06:30:46.581Z,3.20
2022-09-14T06:33:49.263Z,2.77
2022-09-14T06:36:50.882Z,7.63
2022-09-14T06:39:52.488Z,3.27
2022-09-14T06:42:54.092Z,2.95
2022-09-14T06:46:03.819Z,3.03
2022-09-14T06:49:07.055Z,4.28
2022-09-14T06:52:08.630Z,5.65
2022-09-14T06:55:10.250Z,3.97
2022-09-14T06:58:12.039Z,3.05
2022-09-14T07:01:15.159Z,3.90
2022-09-14T07:04:17.308Z,5.80
2022-09-14T07:07:19.499Z,3.42
2022-09-14T07:10:21.083Z,6.22
2022-09-14T07:13:22.829Z,3.45
2022-09-14T07:16:24.901Z,3.00
2022-09-14T07:19:26.564Z,2.80
2022-09-14T07:22:28.207Z,2.28
2022-09-14T07:25:29.790Z,3.40
2022-09-14T07:28:33.085Z,2.90
2022-09-14T07:31:40.193Z,3.00
2022-09-14T07:34:41.837Z,2.30
2022-09-14T07:37:43.481Z,2.10
2022-09-14T07:40:45.032Z,2.90
2022-09-14T07:43:53.645Z,2.53
2022-09-14T07:46:55.249Z,1.85
2022-09-14T07:49:56.857Z,2.00
2022-09-14T07:52:58.419Z,1.65
2022-09-14T07:56:00.998Z,2.10
2022-09-14T07:59:24.255Z,2.10
2022-09-14T08:02:25.704Z,5.40
2022-09-14T08:05:27.310Z,2.63
2022-09-14T08:08:30.505Z,3.10
2022-09-14T08:11:32.527Z,3.20
2022-09-14T08:14:34.130Z,2.08
2022-09-14T08:17:35.679Z,2.58
2022-09-14T08:20:37.216Z,2.65
2022-09-14T08:23:39.288Z,1.83
2022-09-14T08:26:40.921Z,2.30
2022-09-14T08:29:42.425Z,1.75
2022-09-14T08:32:45.140Z,2.53
2022-09-14T08:35:57.839Z,1.80
2022-09-14T08:39:00.627Z,2.00
2022-09-14T08:42:03.673Z,3.08
2022-09-14T08:45:09.564Z,1.63
2022-09-14T08:48:27.100Z,2.10
2022-09-14T08:51:29.041Z,2.60
2022-09-14T08:54:31.216Z,2.30
2022-09-14T08:57:32.707Z,1.80
2022-09-14T09:00:42.626Z,1.75
2022-09-14T09:03:44.274Z,1.60
2022-09-14T09:06:58.885Z,7.20
2022-09-14T09:10:01.438Z,2.60
2022-09-14T09:13:05.241Z,1.90
2022-09-14T09:16:09.276Z,1.75
2022-09-14T09:19:14.085Z,1.70
2022-09-14T09:22:17.326Z,2.17
2022-09-14T09:25:31.117Z,2.58
2022-09-14T09:28:33.631Z,2.15
2022-09-14T09:31:38.048Z,2.83
2022-09-14T09:35:21.040Z,1.80
2022-09-14T09:38:32.604Z,2.03
2022-09-14T09:41:46.702Z,2.22
2022-09-14T09:44:56.042Z,2.10
2022-09-14T09:48:08.541Z,2.20
2022-09-14T09:51:13.177Z,1.80
2022-09-14T09:54:15.350Z,2.40
2022-09-14T09:57:31.081Z,2.10
2022-09-14T10:00:32.803Z,2.57
2022-09-14T10:03:38.510Z,1.80
2022-09-14T10:06:44.246Z,1.87
2022-09-14T10:09:56.447Z,1.30
2022-09-14T10:12:58.064Z,1.70
2022-09-14T10:16:07.388Z,2.47
2022-09-14T10:19:18.600Z,2.20
2022-09-14T10:22:31.709Z,2.00
2022-09-14T10:25:33.310Z,2.10
2022-09-14T10:28:34.906Z,3.00
2022-09-14T10:31:37.708Z,2.30
2022-09-14T10:34:39.328Z,2.10
2022-09-14T10:37:44.020Z,2.30
2022-09-14T10:40:47.233Z,1.80
2022-09-14T10:43:58.719Z,1.63
2022-09-14T10:47:06.610Z,2.27
2022-09-14T10:50:08.160Z,1.80
2022-09-14T10:53:12.758Z,1.53
2022-09-14T10:56:32.808Z,2.00
2022-09-14T11:00:00.535Z,1.60
2022-09-14T11:03:14.261Z,1.67
2022-09-14T11:06:18.648Z,1.67
2022-09-14T11:09:29.149Z,1.70
2022-09-14T11:12:38.869Z,1.60
2022-09-14T11:15:44.869Z,1.70
2022-09-14T11:18:50.165Z,1.50
2022-09-14T11:22:08.294Z,1.60
2022-09-14T11:25:10.380Z,1.40
2022-09-14T11:28:15.304Z,1.47
2022-09-14T11:31:31.560Z,2.57
2022-09-14T11:34:39.211Z,1.40
2022-09-14T11:37:44.380Z,1.50
2022-09-14T11:40:48.963Z,1.60
2022-09-14T11:43:53.876Z,2.00
2022-09-14T11:47:02.497Z,1.50
2022-09-14T11:50:04.091Z,1.57
2022-09-14T11:53:13.573Z,1.80
2022-09-14T11:56:26.290Z,1.67
2022-09-14T11:59:33.675Z,1.70
2022-09-14T12:02:38.054Z,1.60
2022-09-14T12:05:40.278Z,1.77
2022-09-14T12:08:42.158Z,1.47
2022-09-14T12:11:44.905Z,1.60
2022-09-14T12:14:47.047Z,1.50
2022-09-14T12:17:49.467Z,1.73
2022-09-14T12:20:59.865Z,1.70
2022-09-14T12:24:13.260Z,1.87
2022-09-14T12:27:21.116Z,1.87
2022-09-14T12:30:40.711Z,1.50
2022-09-14T12:33:43.790Z,1.57
2022-09-14T12:36:45.388Z,1.80
2022-09-14T12:40:05.972Z,1.73
2022-09-14T12:43:26.232Z,1.50
2022-09-14T12:46:27.904Z,1.67
2022-09-14T12:49:32.384Z,1.80
2022-09-14T12:52:42.876Z,1.60
2022-09-14T12:55:49.548Z,1.60
2022-09-14T12:58:51.105Z,1.70
2022-09-14T13:01:52.767Z,1.80
2022-09-14T13:04:55.752Z,1.47
2022-09-14T13:07:57.438Z,1.73
2022-09-14T13:10:59.074Z,1.30
2022-09-14T13:14:01.890Z,1.70
2022-09-14T13:17:05.063Z,1.80
2022-09-14T13:20:15.838Z,1.70
2022-09-14T13:23:27.158Z,1.60
2022-09-14T13:26:30.085Z,1.60
2022-09-14T13:29:32.135Z,1.77
2022-09-14T13:32:35.033Z,1.93
2022-09-14T13:35:44.909Z,1.90
2022-09-14T13:38:46.923Z,2.00
2022-09-14T13:41:48.612Z,1.80
2022-09-14T13:44:50.517Z,1.40
2022-09-14T13:47:53.430Z,2.73
2022-09-14T13:50:55.088Z,1.80
2022-09-14T13:53:57.735Z,1.70
2022-09-14T13:57:18.853Z,1.60
2022-09-14T14:00:21.328Z,1.63
2022-09-14T14:03:25.752Z,1.80
2022-09-14T14:06:28.469Z,1.60
2022-09-14T14:09:59.781Z,1.80
2022-09-14T14:13:02.529Z,1.83
2022-09-14T14:16:16.585Z,1.80
2022-09-14T14:19:28.585Z,2.60
2022-09-14T14:22:32.751Z,2.70
2022-09-14T14:25:46.375Z,1.60
2022-09-14T14:28:48.297Z,1.77
2022-09-14T14:31:50.329Z,2.10
2022-09-14T14:34:53.062Z,1.77
2022-09-14T14:37:55.099Z,1.83
2022-09-14T14:40:58.179Z,1.40
2022-09-14T14:44:00.425Z,1.77
2022-09-14T14:47:02.031Z,1.30
2022-09-14T14:50:04.086Z,3.57
2022-09-14T14:53:06.411Z,2.20
2022-09-14T14:56:09.622Z,1.87
2022-09-14T14:59:25.541Z,3.30
2022-09-14T15:02:27.141Z,1.60
2022-09-14T15:05:28.725Z,1.50
2022-09-14T15:08:30.318Z,1.67
2022-09-14T15:11:32.083Z,2.73
2022-09-14T15:14:33.699Z,1.63
2022-09-14T15:17:35.313Z,1.80
2022-09-14T15:20:36.974Z,1.50
2022-09-14T15:23:38.869Z,2.40
2022-09-14T15:26:40.486Z,1.50
2022-09-14T15:29:42.052Z,1.60
2022-09-14T15:32:43.656Z,1.60
2022-09-14T15:35:45.455Z,1.40
2022-09-14T15:38:47.059Z,1.50
2022-09-14T15:41:49.256Z,1.80
2022-09-14T15:44:51.269Z,2.57
2022-09-14T15:47:52.957Z,2.77
2022-09-14T15:50:55.906Z,2.50
2022-09-14T15:53:57.551Z,3.00
2022-09-14T15:57:02.229Z,4.93
2022-09-14T16:00:05.406Z,18.73
2022-09-14T16:03:14.662Z,44.67
2022-09-14T16:06:16.362Z,33.20
2022-09-14T16:09:22.521Z,14.77
2022-09-14T16:12:24.151Z,3.67
2022-09-14T16:15:25.937Z,2.97
2022-09-14T16:18:27.591Z,2.77
2022-09-14T16:21:29.765Z,3.20
2022-09-14T16:24:31.921Z,3.00
2022-09-14T16:27:33.742Z,3.47
2022-09-14T16:30:35.330Z,3.70
2022-09-14T16:33:38.659Z,3.50
2022-09-14T16:36:41.014Z,6.13
2022-09-14T16:39:42.954Z,4.07
2022-09-14T16:42:46.991Z,3.30
2022-09-14T16:45:48.880Z,3.47
2022-09-14T16:48:51.442Z,2.50
2022-09-14T16:51:53.088Z,2.77
2022-09-14T16:54:56.263Z,2.67
2022-09-14T16:57:58.074Z,2.47
2022-09-14T17:01:18.689Z,2.93
2022-09-14T17:04:23.647Z,2.40
2022-09-14T17:07:25.813Z,2.43
2022-09-14T17:10:27.345Z,2.20
2022-09-14T17:13:28.906Z,3.30
2022-09-14T17:16:30.570Z,1.93
2022-09-14T17:19:33.272Z,2.63
2022-09-14T17:22:34.942Z,2.50
2022-09-14T17:25:36.542Z,2.30
2022-09-14T17:28:38.708Z,2.30
2022-09-14T17:31:41.554Z,2.40
2022-09-14T17:34:43.184Z,2.30
2022-09-14T17:37:44.832Z,2.10
2022-09-14T17:40:46.409Z,2.33
2022-09-14T17:43:53.032Z,2.40
2022-09-14T17:46:54.638Z,2.17
2022-09-14T17:49:56.253Z,2.90
2022-09-14T17:52:58.183Z,2.10
2022-09-14T17:56:03.909Z,2.17
2022-09-14T17:59:06.885Z,2.30
2022-09-14T18:02:09.266Z,2.20
2022-09-14T18:05:11.387Z,2.43
2022-09-14T18:08:13.001Z,2.87
2022-09-14T18:11:16.154Z,2.10
2022-09-14T18:14:18.068Z,2.40
2022-09-14T18:17:19.686Z,2.40
2022-09-14T18:20:21.336Z,2.60
2022-09-14T18:23:22.953Z,2.40
2022-09-14T18:26:25.239Z,2.83
2022-09-14T18:29:27.525Z,2.33
2022-09-14T18:32:29.241Z,4.83
2022-09-14T18:35:30.848Z,2.50
2022-09-14T18:38:32.665Z,2.20
2022-09-14T18:41:34.318Z,2.40
2022-09-14T18:44:35.917Z,2.97
2022-09-14T18:47:37.479Z,2.40
2022-09-14T18:50:39.678Z,2.43
2022-09-14T18:53:42.040Z,2.10
2022-09-14T18:56:43.660Z,2.37
2022-09-14T18:59:45.530Z,2.60
2022-09-14T19:02:51.194Z,2.60
2022-09-14T19:05:52.990Z,2.23
2022-09-14T19:08:54.620Z,2.50
2022-09-14T19:11:56.327Z,2.60
2022-09-14T19:14:57.880Z,2.50
2022-09-14T19:17:59.645Z,2.50
2022-09-14T19:21:09.065Z,2.57
2022-09-14T19:24:12.315Z,2.30
2022-09-14T19:27:14.529Z,2.60
2022-09-14T19:30:16.342Z,2.83
2022-09-14T19:33:17.887Z,2.37
2022-09-14T19:36:20.652Z,2.60
2022-09-14T19:39:23.177Z,2.77
2022-09-14T19:42:25.144Z,2.40
2022-09-14T19:45:26.696Z,2.47
2022-09-14T19:48:28.275Z,2.47
2022-09-14T19:51:30.437Z,3.27
2022-09-14T19:54:32.012Z,2.80
2022-09-14T19:57:35.211Z,2.87
2022-09-14T20:00:36.809Z,2.90
2022-09-14T20:03:39.659Z,3.00
2022-09-14T20:06:43.486Z,2.57
2022-09-14T20:09:45.487Z,2.80
2022-09-14T20:12:47.093Z,2.70
2022-09-14T20:15:48.782Z,2.90
2022-09-14T20:18:50.807Z,2.50
2022-09-14T20:21:52.730Z,2.50
2022-09-14T20:24:54.260Z,3.23
2022-09-14T20:27:55.846Z,2.60
2022-09-14T20:30:58.878Z,2.80
2022-09-14T20:34:00.467Z,2.60
2022-09-14T20:37:02.040Z,2.90
2022-09-14T20:40:04.424Z,3.03
2022-09-14T20:43:06.055Z,2.90
2022-09-14T20:46:13.202Z,3.17
2022-09-14T20:49:16.271Z,2.90
2022-09-14T20:52:19.188Z,3.40
2022-09-14T20:55:20.759Z,3.47
2022-09-14T20:58:23.724Z,3.47
2022-09-14T21:01:29.256Z,3.97
2022-09-14T21:04:31.019Z,4.00
2022-09-14T21:07:56.043Z,3.43
2022-09-14T21:10:57.952Z,3.07
2022-09-14T21:13:59.878Z,2.80
2022-09-14T21:17:01.776Z,2.60
2022-09-14T21:20:03.994Z,2.47
2022-09-14T21:23:06.892Z,2.77
2022-09-14T21:26:09.054Z,2.53
2022-09-14T21:29:12.382Z,2.93
2022-09-14T21:32:14.093Z,3.00
2022-09-14T21:35:19.156Z,2.70
2022-09-14T21:38:20.711Z,3.17
2022-09-14T21:41:23.474Z,4.53
2022-09-14T21:44:32.207Z,3.00
2022-09-14T21:47:33.842Z,2.90
2022-09-14T21:50:35.465Z,4.40
2022-09-14T21:53:37.033Z,2.90
2022-09-14T21:56:39.507Z,2.77
2022-09-14T21:59:41.196Z,2.83
2022-09-14T22:02:43.016Z,2.50
2022-09-14T22:05:44.622Z,2.80
2022-09-14T22:08:46.491Z,3.00
2022-09-14T22:11:49.011Z,2.90
2022-09-14T22:14:52.123Z,2.30
2022-09-14T22:17:53.706Z,2.70
2022-09-14T22:20:58.676Z,2.80
2022-09-14T22:24:02.420Z,3.40
2022-09-14T22:27:05.095Z,3.03
2022-09-14T22:30:07.001Z,3.20
2022-09-14T22:33:08.656Z,3.10
2022-09-14T22:36:12.313Z,3.80
2022-09-14T22:39:14.355Z,3.23
2022-09-14T22:42:16.043Z,3.07
2022-09-14T22:45:18.288Z,3.50
2022-09-14T22:48:21.522Z,2.97
2022-09-14T22:51:24.527Z,3.10
2022-09-14T22:54:26.150Z,3.20
2022-09-14T22:57:27.716Z,3.50
2022-09-14T23:00:29.862Z,3.37
2022-09-14T23:03:31.508Z,2.90
2022-09-14T23:06:34.867Z,3.00
2022-09-14T23:09:36.550Z,3.00
2022-09-14T23:12:38.078Z,3.40
2022-09-14T23:15:40.012Z,2.87
2022-09-14T23:18:42.022Z,2.80
2022-09-14T23:21:43.824Z,2.80
2022-09-14T23:24:45.407Z,3.00
2022-09-14T23:27:46.959Z,3.20
2022-09-14T23:30:52.327Z,3.77
2022-09-14T23:33:54.587Z,3.37
2022-09-14T23:36:57.263Z,3.37
2022-09-14T23:39:58.933Z,3.20
2022-09-14T23:43:00.628Z,3.60
2022-09-14T23:46:02.259Z,3.50
2022-09-14T23:49:03.905Z,3.90
2022-09-14T23:52:05.622Z,3.93
2022-09-14T23:55:07.523Z,3.80
2022-09-14T23:58:09.084Z,3.93
